Time;durP1;ratioP1;P1;durP2;ratioP2;P2;SDS_P1;SDS_P2;PMS_P1;PMS_P2;Temp;Humidity;BMP_temperature;BMP_pressure;BME280_temperature;BME280_humidity;BME280_pressure;Samples;Min_cycle;Max_cycle;Signal;HPM_P1;HPM_P2
2022/11/03 00:00:57;;;;;;;8.00;7.30;;;7.50;99.90;;;;;;5067050;28;20450;-82
2022/11/03 00:03:25;;;;;;;10.17;7.57;;;7.50;99.90;;;;;;5072717;28;20452;-82
2022/11/03 00:06:05;;;;;;;11.77;7.77;;;7.50;99.90;;;;;;5073556;28;20494;-81
2022/11/03 00:08:33;;;;;;;11.10;7.97;;;7.50;99.90;;;;;;5074717;28;20958;-81
2022/11/03 00:11:05;;;;;;;19.83;8.73;;;7.50;99.90;;;;;;5071727;28;20504;-82
2022/11/03 00:13:31;;;;;;;9.40;7.73;;;7.40;99.90;;;;;;5072126;28;20467;-81
2022/11/03 00:15:58;;;;;;;14.77;10.07;;;7.30;99.90;;;;;;5068016;28;20491;-82
2022/11/03 00:18:27;;;;;;;7.47;6.50;;;7.40;99.90;;;;;;5064474;28;20502;-81
2022/11/03 00:20:59;;;;;;;9.63;8.57;;;7.40;99.90;;;;;;5072195;28;20463;-82
2022/11/03 00:23:28;;;;;;;13.90;7.47;;;7.40;99.90;;;;;;5071403;28;20459;-82
2022/11/03 00:25:56;;;;;;;13.67;8.30;;;7.50;99.90;;;;;;5078103;28;20788;-81
2022/11/03 00:28:23;;;;;;;10.43;6.57;;;7.40;99.90;;;;;;5067823;28;20487;-82
2022/11/03 00:30:50;;;;;;;13.83;8.10;;;7.50;99.90;;;;;;5072973;28;20510;-82
2022/11/03 00:33:17;;;;;;;11.33;7.77;;;7.40;99.90;;;;;;5079391;28;20459;-81
2022/11/03 00:35:45;;;;;;;15.03;8.30;;;7.30;99.90;;;;;;5069980;28;20987;-82
2022/11/03 00:38:12;;;;;;;9.87;8.97;;;7.30;99.90;;;;;;5067354;28;21031;-82
2022/11/03 00:40:39;;;;;;;8.53;7.73;;;7.20;99.90;;;;;;5064213;28;20492;-82
2022/11/03 00:43:06;;;;;;;7.80;7.03;;;7.20;99.90;;;;;;5077407;28;20458;-83
2022/11/03 00:45:33;;;;;;;16.63;8.27;;;7.10;99.90;;;;;;5069568;28;20509;-82
2022/11/03 00:50:45;;;;;;;8.10;7.30;;;7.00;99.90;;;;;;5064328;28;20485;-82
2022/11/03 00:53:12;;;;;;;8.60;7.70;;;6.90;99.90;;;;;;5077491;28;20439;-82
2022/11/03 00:55:39;;;;;;;8.93;6.60;;;6.90;99.90;;;;;;5073179;28;20519;-82
2022/11/03 00:58:06;;;;;;;14.63;10.17;;;7.00;99.90;;;;;;5067958;28;20871;-82
2022/11/03 01:00:33;;;;;;;19.97;8.97;;;7.00;99.90;;;;;;5073907;28;20539;-82
2022/11/03 01:03:00;;;;;;;11.33;6.33;;;7.00;99.90;;;;;;5077979;28;20520;-82
2022/11/03 01:08:12;;;;;;;10.33;8.70;;;7.10;99.90;;;;;;5078135;28;20462;-82
2022/11/03 01:11:42;;;;;;;8.60;7.60;;;7.10;99.90;;;;;;5069022;28;20975;-82
2022/11/03 01:13:26;;;;;;;9.83;7.77;;;7.10;99.90;;;;;;5068419;28;21057;-82
2022/11/03 01:15:57;;;;;;;12.60;8.57;;;7.10;99.90;;;;;;5074213;28;20571;-82
2022/11/03 01:18:24;;;;;;;14.57;8.53;;;7.20;99.90;;;;;;5068246;28;20566;-82
2022/11/03 01:20:55;;;;;;;12.03;8.40;;;7.20;99.90;;;;;;5076036;28;20519;-82
2022/11/03 01:23:24;;;;;;;15.03;9.00;;;7.20;99.90;;;;;;5074124;28;20830;-82
2022/11/03 01:25:51;;;;;;;22.70;10.03;;;7.20;99.90;;;;;;5072231;28;20559;-82
2022/11/03 01:28:18;;;;;;;9.70;7.67;;;7.20;99.90;;;;;;5067472;28;20596;-82
2022/11/03 01:30:45;;;;;;;9.77;8.80;;;7.20;99.90;;;;;;5075633;28;20521;-82
2022/11/03 01:33:12;;;;;;;15.00;8.87;;;7.10;99.90;;;;;;5070846;28;20467;-82
2022/11/03 01:35:39;;;;;;;11.00;9.10;;;7.10;99.90;;;;;;5076304;28;20490;-82
2022/11/03 01:38:06;;;;;;;15.83;10.40;;;7.10;99.90;;;;;;5073906;28;20498;-82
2022/11/03 01:40:34;;;;;;;10.20;9.10;;;7.10;99.90;;;;;;5074802;28;20504;-82
2022/11/03 01:43:15;;;;;;;13.20;9.07;;;7.20;99.90;;;;;;5070028;28;20560;-82
2022/11/03 01:45:43;;;;;;;15.37;9.73;;;7.20;99.90;;;;;;5076250;28;20494;-82
2022/11/03 01:48:11;;;;;;;11.37;9.57;;;7.20;99.90;;;;;;5076058;28;20494;-82
2022/11/03 01:50:40;;;;;;;10.83;9.63;;;7.20;99.90;;;;;;5069109;28;20919;-82
2022/11/03 01:53:08;;;;;;;11.73;10.20;;;7.30;99.90;;;;;;5083108;28;20862;-82
2022/11/03 01:55:39;;;;;;;13.20;10.23;;;7.20;99.90;;;;;;5078019;28;20532;-82
2022/11/03 01:58:10;;;;;;;12.20;9.77;;;7.20;99.90;;;;;;5063422;28;20602;-82
2022/11/03 02:00:37;;;;;;;12.57;10.07;;;7.20;99.90;;;;;;5074653;28;20859;-82
2022/11/03 02:03:05;;;;;;;15.20;10.53;;;7.20;99.90;;;;;;5074323;28;20586;-82
2022/11/03 02:05:33;;;;;;;16.30;10.87;;;7.30;99.90;;;;;;5071690;28;20547;-82
2022/11/03 02:08:05;;;;;;;16.53;10.30;;;7.30;99.90;;;;;;5075326;28;20530;-82
2022/11/03 02:10:32;;;;;;;20.10;10.43;;;7.30;99.90;;;;;;5074132;28;20514;-82
2022/11/03 02:13:05;;;;;;;10.67;9.43;;;7.40;99.90;;;;;;5066928;28;20800;-82
2022/11/03 02:15:33;;;;;;;15.33;10.60;;;7.40;99.90;;;;;;5072693;28;20495;-83
2022/11/03 02:18:01;;;;;;;13.87;10.30;;;7.40;99.90;;;;;;5074795;28;21064;-82
2022/11/03 02:20:31;;;;;;;10.90;9.77;;;7.50;99.90;;;;;;5066346;28;20970;-82
2022/11/03 02:23:30;;;;;;;19.00;10.43;;;7.50;99.90;;;;;;5070626;28;20483;-82
2022/11/03 02:25:59;;;;;;;11.70;7.70;;;7.40;99.90;;;;;;5075183;28;20520;-82
2022/11/03 02:28:29;;;;;;;9.03;8.00;;;7.60;99.90;;;;;;5066687;28;20517;-82
2022/11/03 02:31:03;;;;;;;8.67;7.13;;;7.60;99.90;;;;;;5071450;28;21301;-82
2022/11/03 02:33:37;;;;;;;8.43;6.70;;;7.70;99.90;;;;;;5071602;28;20520;-82
2022/11/03 02:36:11;;;;;;;9.37;5.80;;;7.70;99.90;;;;;;5066505;28;20460;-82
2022/11/03 02:38:44;;;;;;;10.13;8.40;;;7.70;99.90;;;;;;5064893;28;20465;-82
2022/11/03 02:41:15;;;;;;;20.00;7.83;;;7.80;99.90;;;;;;5070124;28;20503;-82
2022/11/03 02:43:43;;;;;;;7.63;6.40;;;7.80;99.90;;;;;;5076810;28;20467;-83
2022/11/03 02:46:13;;;;;;;10.20;6.50;;;7.90;99.90;;;;;;5076189;28;20476;-82
2022/11/03 02:48:40;;;;;;;10.37;6.40;;;7.80;99.90;;;;;;5076236;28;20494;-82
2022/11/03 02:51:07;;;;;;;15.00;6.90;;;7.80;99.90;;;;;;5067862;28;20540;-82
2022/11/03 02:53:40;;;;;;;9.50;7.13;;;7.70;99.90;;;;;;5079158;28;20469;-82
2022/11/03 02:56:12;;;;;;;13.43;7.00;;;7.80;99.90;;;;;;5069975;28;20545;-82
2022/11/03 02:58:47;;;;;;;8.20;6.73;;;7.80;99.90;;;;;;5070898;28;21180;-82
2022/11/03 03:01:18;;;;;;;13.03;6.70;;;7.70;99.90;;;;;;5074853;28;20522;-82
2022/11/03 03:03:49;;;;;;;9.10;6.47;;;7.70;99.90;;;;;;5074192;28;20559;-82
2022/11/03 03:06:22;;;;;;;9.10;7.07;;;7.80;99.90;;;;;;5073030;28;20491;-82
2022/11/03 03:08:53;;;;;;;10.03;6.97;;;7.80;99.90;;;;;;5070753;28;20881;-82
2022/11/03 03:11:35;;;;;;;8.43;6.10;;;7.80;99.90;;;;;;5071804;28;20515;-82
2022/11/03 03:14:07;;;;;;;10.83;6.80;;;7.80;99.90;;;;;;5072133;28;20466;-82
2022/11/03 03:16:42;;;;;;;9.43;6.30;;;7.70;99.90;;;;;;5064882;28;20502;-83
2022/11/03 03:19:18;;;;;;;10.93;6.53;;;7.80;99.90;;;;;;5078760;28;20432;-82
2022/11/03 03:21:49;;;;;;;15.20;7.60;;;7.80;99.90;;;;;;5076487;28;20504;-82
2022/11/03 03:24:26;;;;;;;7.20;6.47;;;7.80;99.90;;;;;;5076085;28;20519;-82
2022/11/03 03:26:57;;;;;;;10.17;7.00;;;7.80;99.90;;;;;;5071322;28;20464;-82
2022/11/03 03:29:29;;;;;;;8.47;6.47;;;7.80;99.90;;;;;;5074574;28;20489;-82
2022/11/03 03:32:00;;;;;;;11.83;5.80;;;7.70;99.90;;;;;;5070548;28;20455;-82
2022/11/03 03:34:29;;;;;;;7.90;6.00;;;7.80;99.90;;;;;;5078431;28;20585;-82
2022/11/03 03:36:59;;;;;;;12.33;6.67;;;7.80;99.90;;;;;;5073948;28;20486;-82
2022/11/03 03:39:31;;;;;;;10.63;6.17;;;7.80;99.90;;;;;;5070503;28;20496;-82
2022/11/03 03:41:59;;;;;;;12.50;5.00;;;7.90;99.90;;;;;;5077023;28;20479;-82
2022/11/03 03:44:29;;;;;;;8.93;5.60;;;7.80;99.90;;;;;;5081745;28;20460;-82
2022/11/03 03:46:59;;;;;;;10.60;5.40;;;7.80;99.90;;;;;;5067511;28;21086;-82
2022/11/03 03:49:27;;;;;;;9.00;4.30;;;7.80;99.90;;;;;;5071705;28;20529;-82
2022/11/03 03:51:54;;;;;;;6.57;5.63;;;7.80;99.90;;;;;;5074407;28;20488;-82
2022/11/03 03:54:21;;;;;;;5.10;4.60;;;7.90;99.90;;;;;;5067414;28;20547;-82
2022/11/03 03:56:53;;;;;;;4.93;4.43;;;7.90;99.90;;;;;;5081083;28;20498;-82
2022/11/03 03:59:20;;;;;;;6.20;4.90;;;7.90;99.90;;;;;;5069505;28;20493;-82
2022/11/03 04:01:49;;;;;;;4.87;3.90;;;7.80;99.90;;;;;;5076135;28;21086;-82
2022/11/03 04:04:16;;;;;;;6.37;4.67;;;7.90;99.90;;;;;;5075770;28;20523;-82
2022/11/03 04:06:43;;;;;;;3.40;3.00;;;7.80;99.90;;;;;;5068971;28;21176;-82
2022/11/03 04:09:10;;;;;;;5.00;4.30;;;7.90;99.90;;;;;;5074230;28;20620;-82
2022/11/03 04:22:48;;;;;;;8.83;4.67;;;7.80;99.90;;;;;;5070689;28;20512;-82
2022/11/03 04:25:15;;;;;;;6.97;3.10;;;7.70;99.90;;;;;;5076174;28;20547;-82
2022/11/03 04:27:43;;;;;;;4.53;3.37;;;7.70;99.90;;;;;;5073409;28;20583;-82
2022/11/03 04:30:16;;;;;;;5.57;3.97;;;7.70;99.90;;;;;;5069953;28;21286;-82
2022/11/03 04:32:46;;;;;;;5.73;4.53;;;7.60;99.90;;;;;;5072572;28;20924;-82
2022/11/03 04:35:19;;;;;;;3.10;2.70;;;7.60;99.90;;;;;;5076408;28;20463;-82
2022/11/03 04:37:50;;;;;;;4.20;2.67;;;7.60;99.90;;;;;;5071034;28;20539;-82
2022/11/03 04:40:18;;;;;;;6.70;3.40;;;7.60;99.90;;;;;;5063135;28;20460;-82
2022/11/03 04:42:46;;;;;;;7.20;2.57;;;7.60;99.90;;;;;;5067414;28;20980;-82
2022/11/03 04:45:22;;;;;;;3.50;2.70;;;7.60;99.90;;;;;;5077206;28;21138;-82
2022/11/03 04:47:51;;;;;;;4.70;2.50;;;7.60;99.90;;;;;;5064666;28;20483;-82
2022/11/03 04:50:20;;;;;;;5.93;2.80;;;7.60;99.90;;;;;;5071639;28;20487;-82
2022/11/03 04:52:48;;;;;;;4.07;2.30;;;7.70;99.90;;;;;;5072061;28;20956;-82
2022/11/03 04:55:17;;;;;;;3.20;2.23;;;7.60;99.90;;;;;;5074077;28;20544;-82
2022/11/03 04:57:44;;;;;;;4.53;2.63;;;7.50;99.90;;;;;;5074066;28;20498;-82
2022/11/03 05:00:16;;;;;;;5.67;3.47;;;7.60;99.90;;;;;;5075696;28;20494;-82
2022/11/03 05:02:44;;;;;;;2.60;2.40;;;7.50;99.90;;;;;;5069886;28;20505;-81
2022/11/03 05:05:18;;;;;;;4.77;3.60;;;7.60;99.90;;;;;;5066612;28;20467;-82
2022/11/03 05:07:47;;;;;;;4.40;2.90;;;7.50;99.90;;;;;;5068089;28;20850;-82
2022/11/03 05:10:18;;;;;;;2.63;2.30;;;7.60;99.90;;;;;;5065217;28;20494;-82
2022/11/03 05:12:47;;;;;;;3.47;2.93;;;7.60;99.90;;;;;;5065881;28;20587;-82
2022/11/03 05:15:28;;;;;;;2.97;2.43;;;7.70;99.90;;;;;;5072751;28;20483;-82
2022/11/03 05:17:56;;;;;;;2.93;2.40;;;7.70;99.90;;;;;;5072251;28;20551;-82
2022/11/03 05:20:32;;;;;;;3.77;2.67;;;7.70;99.90;;;;;;5071413;28;20549;-82
2022/11/03 05:23:00;;;;;;;8.80;2.67;;;7.70;99.90;;;;;;5078508;28;20472;-82
2022/11/03 05:25:38;;;;;;;2.77;2.10;;;7.70;99.90;;;;;;5069392;28;20471;-82
2022/11/03 05:28:21;;;;;;;5.03;1.90;;;7.60;99.90;;;;;;5068476;28;20604;-82
2022/11/03 05:30:49;;;;;;;12.63;3.00;;;7.60;99.90;;;;;;5067411;28;20531;-81
2022/11/03 05:33:21;;;;;;;2.63;2.23;;;7.70;99.90;;;;;;5068928;28;20911;-81
2022/11/03 05:35:50;;;;;;;2.43;2.23;;;7.70;99.90;;;;;;5073828;28;20763;-81
2022/11/03 05:38:20;;;;;;;3.07;1.97;;;7.70;99.90;;;;;;5075339;28;20574;-81
2022/11/03 05:40:50;;;;;;;5.33;3.00;;;7.70;99.90;;;;;;5079054;28;20461;-82
2022/11/03 05:43:19;;;;;;;3.03;1.97;;;7.70;99.90;;;;;;5073083;28;20455;-82
2022/11/03 05:45:47;;;;;;;6.37;2.17;;;7.70;99.90;;;;;;5062666;28;20547;-82
2022/11/03 05:48:21;;;;;;;5.57;2.57;;;7.70;99.90;;;;;;5065865;28;20511;-82
2022/11/03 05:50:50;;;;;;;3.23;2.03;;;7.70;99.90;;;;;;5068926;28;20515;-83
2022/11/03 05:53:26;;;;;;;3.83;2.13;;;7.70;99.90;;;;;;5080230;28;20494;-82
2022/11/03 05:55:54;;;;;;;4.30;3.00;;;7.70;99.90;;;;;;5077000;28;20486;-83
2022/11/03 05:58:24;;;;;;;6.70;2.80;;;7.60;99.90;;;;;;5081529;28;20463;-83
2022/11/03 06:00:52;;;;;;;4.50;2.97;;;7.70;99.90;;;;;;5067391;28;20528;-83
2022/11/03 06:03:23;;;;;;;3.87;2.47;;;7.60;99.90;;;;;;5073613;28;20556;-82
2022/11/03 06:05:52;;;;;;;7.13;2.50;;;7.70;99.90;;;;;;5063462;28;20895;-82
2022/11/03 06:08:21;;;;;;;3.40;2.67;;;7.60;99.90;;;;;;5078622;28;20835;-82
2022/11/03 06:10:50;;;;;;;4.00;1.57;;;7.70;99.90;;;;;;5065726;28;20492;-83
2022/11/03 06:13:20;;;;;;;3.80;1.40;;;7.70;99.90;;;;;;5070714;28;20539;-82
2022/11/03 06:15:51;;;;;;;5.43;3.60;;;7.60;99.90;;;;;;5073335;28;20467;-82
2022/11/03 06:18:21;;;;;;;7.60;3.00;;;7.70;99.90;;;;;;5075687;28;21001;-82
2022/11/03 06:20:54;;;;;;;3.10;2.03;;;7.70;99.90;;;;;;5082375;28;21165;-83
2022/11/03 06:23:23;;;;;;;3.33;2.83;;;7.70;99.90;;;;;;5082181;28;20447;-82
2022/11/03 06:25:52;;;;;;;4.07;3.00;;;7.70;99.90;;;;;;5070054;28;20495;-83
2022/11/03 06:28:22;;;;;;;3.83;2.30;;;7.70;99.90;;;;;;5071523;28;20506;-82
2022/11/03 06:30:49;;;;;;;6.67;2.67;;;7.80;99.90;;;;;;5074825;28;20478;-82
2022/11/03 06:33:20;;;;;;;2.50;2.30;;;7.80;99.90;;;;;;5075931;28;20471;-82
2022/11/03 06:35:48;;;;;;;3.87;1.90;;;7.80;99.90;;;;;;5070908;28;20459;-82
2022/11/03 06:38:21;;;;;;;5.03;2.70;;;7.80;99.90;;;;;;5060466;28;20479;-83
2022/11/03 06:40:51;;;;;;;6.53;2.10;;;7.80;99.90;;;;;;5061308;28;20495;-82
2022/11/03 06:43:21;;;;;;;3.30;2.00;;;7.80;99.90;;;;;;5067299;28;20564;-82
2022/11/03 06:45:53;;;;;;;4.30;2.63;;;7.90;99.90;;;;;;5069879;28;20524;-82
2022/11/03 06:48:27;;;;;;;5.50;2.83;;;8.00;99.90;;;;;;5075693;28;20473;-83
2022/11/03 06:50:54;;;;;;;3.17;2.00;;;8.00;99.90;;;;;;5078392;28;20573;-83
2022/11/03 06:53:26;;;;;;;5.90;2.20;;;8.00;99.90;;;;;;5085699;28;20449;-82
2022/11/03 06:55:53;;;;;;;2.33;1.80;;;8.10;99.90;;;;;;5065250;28;20460;-82
2022/11/03 06:58:28;;;;;;;7.27;1.80;;;8.20;99.90;;;;;;5078586;28;20466;-82
2022/11/03 07:00:58;;;;;;;2.03;1.70;;;8.30;99.90;;;;;;5069034;28;20733;-82
2022/11/03 07:03:29;;;;;;;3.90;2.53;;;8.30;99.90;;;;;;5065034;28;20458;-82
2022/11/03 07:05:58;;;;;;;2.40;1.80;;;8.30;99.90;;;;;;5074638;28;21108;-82
2022/11/03 07:08:30;;;;;;;3.23;1.73;;;8.40;99.90;;;;;;5071344;28;21153;-82
2022/11/03 07:11:01;;;;;;;5.10;2.03;;;8.40;99.90;;;;;;5067542;28;20526;-83
2022/11/03 07:13:31;;;;;;;2.87;1.93;;;8.60;99.90;;;;;;5080441;28;20570;-82
2022/11/03 07:15:58;;;;;;;6.30;1.33;;;8.60;99.90;;;;;;5062729;28;20477;-83
2022/11/03 07:18:28;;;;;;;3.97;1.60;;;8.60;99.90;;;;;;5073662;28;20533;-83
2022/11/03 07:20:57;;;;;;;6.10;1.70;;;8.70;99.90;;;;;;5075823;28;20473;-81
2022/11/03 07:23:29;;;;;;;3.50;1.40;;;8.70;99.90;;;;;;5077381;28;20486;-81
2022/11/03 07:25:59;;;;;;;5.63;2.07;;;8.80;99.90;;;;;;5065171;28;20502;-80
2022/11/03 07:28:34;;;;;;;2.70;1.10;;;8.80;99.90;;;;;;5076274;28;20575;-80
2022/11/03 07:31:10;;;;;;;7.20;2.40;;;8.90;99.90;;;;;;5071622;28;20515;-80
2022/11/03 07:33:38;;;;;;;7.17;1.53;;;9.00;99.90;;;;;;5067866;28;20459;-80
2022/11/03 07:36:10;;;;;;;3.17;1.67;;;9.10;99.90;;;;;;5062508;28;20463;-80
2022/11/03 07:38:39;;;;;;;2.50;1.60;;;9.20;99.90;;;;;;5067057;28;20555;-80
2022/11/03 07:41:12;;;;;;;4.97;1.57;;;9.20;99.90;;;;;;5071811;28;20482;-80
2022/11/03 07:43:39;;;;;;;4.77;1.90;;;9.30;99.90;;;;;;5065588;28;20523;-80
2022/11/03 07:46:14;;;;;;;2.03;1.60;;;9.30;99.90;;;;;;5066377;28;20535;-80
2022/11/03 07:48:45;;;;;;;6.37;2.40;;;9.40;99.90;;;;;;5065503;28;20509;-81
2022/11/03 07:51:18;;;;;;;1.67;1.33;;;9.50;99.90;;;;;;5066990;28;20583;-81
2022/11/03 07:53:48;;;;;;;4.07;2.37;;;9.60;99.90;;;;;;5066559;28;20564;-81
2022/11/03 07:56:19;;;;;;;5.33;2.10;;;9.70;99.90;;;;;;5068069;28;20499;-81
2022/11/03 07:58:47;;;;;;;7.20;1.83;;;9.80;99.90;;;;;;5065611;28;20520;-81
2022/11/03 08:01:24;;;;;;;6.63;2.20;;;9.70;99.90;;;;;;5075860;28;20482;-81
2022/11/03 08:03:51;;;;;;;2.50;1.50;;;9.70;99.90;;;;;;5077679;28;20439;-81
2022/11/03 08:06:19;;;;;;;6.37;2.20;;;9.80;99.90;;;;;;5065802;28;20987;-81
2022/11/03 08:08:47;;;;;;;2.10;1.63;;;9.80;99.90;;;;;;5067402;28;20475;-81
2022/11/03 08:11:14;;;;;;;3.43;1.87;;;9.80;99.90;;;;;;5064593;28;20503;-83
2022/11/03 08:13:41;;;;;;;3.20;1.57;;;9.90;99.90;;;;;;5067107;28;20543;-80
2022/11/03 08:16:08;;;;;;;2.90;1.43;;;10.00;99.90;;;;;;5071757;28;20538;-80
2022/11/03 08:18:35;;;;;;;2.50;2.30;;;10.10;99.90;;;;;;5074522;28;20454;-80
2022/11/03 08:21:02;;;;;;;7.90;1.90;;;10.20;99.90;;;;;;5070620;28;20478;-81
2022/11/03 08:23:29;;;;;;;3.30;1.83;;;10.30;99.90;;;;;;5072671;28;20466;-80
2022/11/03 08:25:58;;;;;;;4.87;1.10;;;10.40;99.90;;;;;;5066300;28;20846;-80
2022/11/03 08:28:25;;;;;;;4.60;2.07;;;10.60;99.90;;;;;;5076078;28;20490;-80
2022/11/03 08:30:52;;;;;;;2.30;1.23;;;10.70;99.90;;;;;;5065192;28;20497;-80
2022/11/03 08:33:19;;;;;;;3.83;2.13;;;10.60;99.90;;;;;;5072114;28;20551;-80
2022/11/03 08:35:46;;;;;;;4.83;1.83;;;10.70;99.90;;;;;;5065445;28;20459;-80
2022/11/03 08:38:13;;;;;;;1.83;1.60;;;10.90;99.90;;;;;;5081274;28;20455;-81
2022/11/03 08:40:40;;;;;;;5.00;1.60;;;11.00;99.90;;;;;;5064589;28;20977;-80
2022/11/03 08:43:09;;;;;;;6.73;1.40;;;11.20;99.90;;;;;;5071626;28;20575;-81
2022/11/03 08:45:36;;;;;;;1.47;1.37;;;11.10;99.90;;;;;;5077970;28;20497;-80
2022/11/03 08:48:03;;;;;;;2.90;1.90;;;11.20;99.90;;;;;;5073922;28;20539;-80
2022/11/03 08:50:30;;;;;;;6.67;1.97;;;11.30;99.90;;;;;;5070187;28;20448;-80
2022/11/03 08:52:57;;;;;;;6.90;1.50;;;11.50;99.90;;;;;;5080940;28;20926;-81
2022/11/03 08:55:24;;;;;;;2.20;1.23;;;11.40;99.90;;;;;;5066800;28;20448;-80
2022/11/03 08:57:51;;;;;;;2.37;2.17;;;11.60;99.90;;;;;;5070491;28;20512;-80
2022/11/03 09:00:19;;;;;;;2.30;2.00;;;11.60;99.90;;;;;;5076487;28;20456;-80
2022/11/03 09:02:46;;;;;;;4.63;1.77;;;11.60;99.90;;;;;;5066521;28;20531;-80
2022/11/03 09:05:13;;;;;;;2.40;2.20;;;11.70;99.90;;;;;;5068546;28;20447;-80
2022/11/03 09:07:41;;;;;;;5.13;1.80;;;11.80;99.90;;;;;;5063787;28;20938;-80
2022/11/03 09:10:10;;;;;;;2.63;1.93;;;11.70;99.90;;;;;;5066504;28;20453;-80
2022/11/03 09:12:37;;;;;;;11.90;3.53;;;12.00;99.90;;;;;;5077266;28;20477;-80
2022/11/03 09:15:05;;;;;;;5.77;1.63;;;12.10;99.90;;;;;;5073407;28;20512;-80
2022/11/03 09:17:34;;;;;;;8.73;2.17;;;12.00;99.90;;;;;;5074752;28;20466;-80
2022/11/03 09:20:01;;;;;;;2.50;1.90;;;12.00;99.90;;;;;;5064317;28;21001;-80
2022/11/03 09:22:28;;;;;;;4.00;1.33;;;12.20;99.90;;;;;;5069289;28;20556;-80
2022/11/03 09:24:55;;;;;;;2.47;1.40;;;12.30;99.90;;;;;;5076945;28;20496;-80
2022/11/03 09:27:22;;;;;;;1.57;1.20;;;12.40;99.90;;;;;;5075275;28;20546;-80
2022/11/03 09:29:49;;;;;;;5.20;3.60;;;12.50;99.90;;;;;;5068057;28;21201;-80
2022/11/03 09:32:16;;;;;;;3.43;2.10;;;12.70;99.90;;;;;;5065842;28;21030;-80
2022/11/03 09:34:45;;;;;;;2.17;1.93;;;12.60;99.90;;;;;;5064682;28;20467;-80
2022/11/03 09:37:12;;;;;;;2.90;2.57;;;12.70;99.90;;;;;;5064595;28;20785;-81
2022/11/03 09:39:38;;;;;;;3.20;1.70;;;12.70;99.90;;;;;;5065251;28;20929;-80
2022/11/03 09:42:06;;;;;;;2.60;2.40;;;12.80;99.90;;;;;;5076947;28;20463;-80
2022/11/03 09:44:35;;;;;;;4.57;2.20;;;12.90;99.90;;;;;;5079221;28;20483;-80
2022/11/03 09:47:03;;;;;;;4.70;1.40;;;13.00;99.90;;;;;;5071354;28;20442;-81
2022/11/03 09:49:32;;;;;;;7.37;2.47;;;13.10;99.90;;;;;;5071009;28;20465;-80
2022/11/03 09:52:01;;;;;;;7.73;1.87;;;13.10;99.90;;;;;;5071676;28;20509;-80
2022/11/03 09:54:29;;;;;;;4.10;1.83;;;13.10;99.90;;;;;;5069598;28;20497;-81
2022/11/03 09:56:58;;;;;;;2.97;1.70;;;13.10;99.90;;;;;;5064455;28;20547;-80
2022/11/03 09:59:25;;;;;;;3.27;2.03;;;13.20;99.90;;;;;;5066654;28;20470;-80
2022/11/03 10:01:53;;;;;;;2.93;1.93;;;13.20;99.90;;;;;;5069965;28;20771;-80
2022/11/03 10:04:25;;;;;;;4.60;1.83;;;13.20;99.90;;;;;;5069250;28;20471;-80
2022/11/03 10:06:52;;;;;;;4.00;2.07;;;13.20;99.90;;;;;;5062910;28;20561;-81
2022/11/03 10:09:22;;;;;;;1.60;1.50;;;13.30;99.90;;;;;;5081373;28;20519;-80
2022/11/03 10:11:51;;;;;;;7.43;2.30;;;13.30;99.90;;;;;;5067825;28;20614;-80
2022/11/03 10:14:18;;;;;;;5.87;3.20;;;13.30;99.90;;;;;;5067157;28;20445;-80
2022/11/03 10:16:51;;;;;;;10.07;3.03;;;13.60;99.90;;;;;;5072354;28;21027;-80
2022/11/03 10:19:19;;;;;;;2.73;1.73;;;13.60;99.90;;;;;;5072240;28;20516;-80
2022/11/03 10:21:46;;;;;;;5.83;2.30;;;13.50;99.90;;;;;;5074206;28;20918;-80
2022/11/03 10:24:13;;;;;;;7.00;2.63;;;13.60;99.90;;;;;;5075782;28;20548;-80
2022/11/03 10:26:46;;;;;;;2.10;1.50;;;13.50;99.90;;;;;;5075448;28;20461;-80
2022/11/03 10:29:21;;;;;;;2.23;1.60;;;13.40;99.90;;;;;;5075662;28;20494;-81
2022/11/03 10:31:50;;;;;;;5.10;1.97;;;13.60;99.90;;;;;;5080147;28;20516;-80
2022/11/03 10:34:32;;;;;;;3.67;2.03;;;13.70;99.90;;;;;;5070372;28;20937;-81
2022/11/03 10:37:19;;;;;;;5.13;2.30;;;13.70;99.90;;;;;;5077467;28;20531;-81
2022/11/03 10:39:47;;;;;;;4.20;2.20;;;13.70;99.90;;;;;;5076253;28;20786;-81
2022/11/03 10:42:26;;;;;;;3.40;2.37;;;13.90;99.90;;;;;;5075187;28;20493;-81
2022/11/03 10:44:54;;;;;;;4.10;2.30;;;14.10;99.90;;;;;;5078823;28;20535;-81
2022/11/03 10:47:25;;;;;;;3.43;2.20;;;14.20;99.90;;;;;;5077554;28;20967;-81
2022/11/03 10:49:54;;;;;;;4.70;3.07;;;14.10;99.90;;;;;;5066446;28;20445;-82
2022/11/03 10:52:23;;;;;;;3.57;2.40;;;14.00;99.90;;;;;;5078158;28;20482;-81
2022/11/03 10:54:52;;;;;;;3.40;2.47;;;14.40;99.90;;;;;;5079614;28;20501;-81
2022/11/03 10:57:20;;;;;;;4.10;2.27;;;14.20;99.90;;;;;;5073723;28;20456;-81
2022/11/03 10:59:50;;;;;;;2.23;2.00;;;14.30;99.90;;;;;;5069132;28;20512;-81
2022/11/03 11:02:19;;;;;;;4.50;1.80;;;14.60;99.90;;;;;;5072013;28;20499;-81
2022/11/03 11:04:48;;;;;;;3.00;2.00;;;14.60;99.90;;;;;;5068306;28;20469;-82
2022/11/03 11:07:23;;;;;;;4.17;2.67;;;14.80;99.90;;;;;;5068337;28;20536;-81
2022/11/03 11:09:50;;;;;;;4.43;2.50;;;15.00;99.90;;;;;;5064073;28;20461;-81
2022/11/03 11:12:21;;;;;;;2.70;2.33;;;15.10;99.90;;;;;;5073576;28;20511;-81
2022/11/03 11:14:59;;;;;;;2.30;1.67;;;14.90;99.90;;;;;;5070963;28;20881;-81
2022/11/03 11:17:48;;;;;;;2.93;2.63;;;15.00;99.90;;;;;;5077356;28;20449;-81
2022/11/03 11:20:33;;;;;;;2.10;1.77;;;15.10;99.90;;;;;;5070850;28;20435;-81
2022/11/03 11:23:51;;;;;;;9.20;2.40;;;15.10;99.90;;;;;;5064393;28;20925;-81
2022/11/03 11:26:34;;;;;;;3.30;2.40;;;15.20;99.90;;;;;;5079216;28;20449;-81
2022/11/03 11:29:40;;;;;;;4.70;2.70;;;15.10;99.90;;;;;;5066914;28;20587;-81
2022/11/03 11:32:49;;;;;;;4.70;2.37;;;15.00;99.90;;;;;;5064274;28;21022;-81
2022/11/03 11:35:34;;;;;;;3.67;2.60;;;14.90;99.90;;;;;;5055699;28;20460;-81
2022/11/03 11:38:34;;;;;;;5.23;2.37;;;15.00;99.90;;;;;;5064948;28;20537;-81
2022/11/03 11:41:01;;;;;;;2.50;2.03;;;15.10;99.90;;;;;;5069182;28;20532;-81
2022/11/03 11:43:28;;;;;;;4.60;2.53;;;15.10;99.90;;;;;;5077829;28;20459;-81
2022/11/03 11:46:41;;;;;;;5.60;3.40;;;15.30;99.90;;;;;;5069143;28;20460;-81
2022/11/03 11:49:18;;;;;;;2.50;2.20;;;15.30;99.90;;;;;;5044311;28;20970;-81
2022/11/03 11:51:46;;;;;;;3.40;2.50;;;15.50;99.90;;;;;;5072580;28;20466;-82
2022/11/03 11:54:19;;;;;;;2.93;2.13;;;15.70;99.90;;;;;;5077990;28;20452;-81
2022/11/03 11:56:48;;;;;;;3.07;2.80;;;15.50;99.90;;;;;;5075395;28;20461;-81
2022/11/03 11:59:21;;;;;;;7.40;2.47;;;15.50;99.90;;;;;;5068665;28;20503;-81
2022/11/03 12:01:51;;;;;;;5.30;2.13;;;15.60;99.90;;;;;;5075409;28;20980;-81
2022/11/03 12:04:22;;;;;;;4.07;2.37;;;15.60;99.90;;;;;;5077569;28;20540;-81
2022/11/03 12:06:50;;;;;;;2.93;1.80;;;15.50;99.90;;;;;;5069325;28;20857;-81
2022/11/03 12:09:19;;;;;;;4.07;2.40;;;15.80;99.90;;;;;;5067584;28;20523;-81
2022/11/03 12:11:48;;;;;;;5.10;2.87;;;15.90;99.90;;;;;;5079316;28;20463;-82
2022/11/03 12:14:26;;;;;;;2.80;2.07;;;15.80;99.90;;;;;;5079189;28;21129;-82
2022/11/03 12:16:54;;;;;;;4.07;2.90;;;16.00;99.90;;;;;;5069347;28;20447;-82
2022/11/03 12:19:43;;;;;;;3.50;2.37;;;15.90;99.90;;;;;;5065513;28;20965;-82
2022/11/03 12:22:12;;;;;;;2.63;2.43;;;15.90;99.90;;;;;;5069339;28;20506;-82
2022/11/03 12:24:51;;;;;;;3.03;2.40;;;15.90;99.90;;;;;;5078568;28;20467;-81
2022/11/03 12:27:40;;;;;;;2.83;2.40;;;15.70;99.90;;;;;;5077999;28;20497;-82
2022/11/03 12:30:13;;;;;;;8.53;2.83;;;15.80;99.90;;;;;;5069701;28;20462;-82
2022/11/03 12:32:40;;;;;;;3.23;2.47;;;15.90;99.90;;;;;;5070885;28;20543;-82
2022/11/03 12:35:09;;;;;;;4.23;2.40;;;15.90;99.90;;;;;;5071715;28;20482;-82
2022/11/03 12:37:37;;;;;;;3.40;2.23;;;15.90;99.90;;;;;;5079614;28;20480;-81
2022/11/03 12:40:06;;;;;;;4.80;2.37;;;16.00;99.90;;;;;;5071631;28;20534;-82
2022/11/03 12:42:33;;;;;;;2.00;1.90;;;15.90;99.90;;;;;;5069742;28;20457;-82
2022/11/03 12:45:01;;;;;;;3.67;2.17;;;15.80;99.90;;;;;;5063672;28;20461;-83
2022/11/03 12:47:27;;;;;;;2.80;2.00;;;15.80;99.90;;;;;;5078856;28;20564;-82
2022/11/03 12:49:54;;;;;;;5.37;2.13;;;15.80;99.90;;;;;;5074151;28;20517;-82
2022/11/03 12:52:21;;;;;;;8.60;3.33;;;15.80;99.90;;;;;;5066749;28;20538;-81
2022/11/03 12:54:50;;;;;;;2.50;2.17;;;15.80;99.90;;;;;;5075399;28;20451;-81
2022/11/03 12:57:17;;;;;;;4.70;3.50;;;15.90;99.90;;;;;;5073990;28;20913;-81
2022/11/03 12:59:44;;;;;;;4.07;2.90;;;15.90;99.90;;;;;;5070264;28;20502;-81
2022/11/03 13:02:11;;;;;;;3.97;2.83;;;15.80;99.90;;;;;;5064418;28;20500;-82
2022/11/03 13:04:38;;;;;;;3.57;2.60;;;15.90;99.90;;;;;;5072003;28;20504;-81
2022/11/03 13:07:05;;;;;;;3.63;2.20;;;16.00;99.90;;;;;;5071073;28;20453;-81
2022/11/03 13:09:34;;;;;;;9.33;2.70;;;16.00;99.90;;;;;;5066884;28;20446;-81
2022/11/03 13:14:47;;;;;;;3.10;2.17;;;16.00;99.90;;;;;;5071677;28;20457;-81
2022/11/03 13:17:14;;;;;;;6.10;2.50;;;16.00;99.90;;;;;;5070992;28;20446;-82
2022/11/03 13:19:41;;;;;;;3.80;2.37;;;15.90;99.90;;;;;;5079030;28;20771;-82
2022/11/03 13:22:08;;;;;;;4.80;2.40;;;15.90;99.90;;;;;;5067210;28;20537;-82
2022/11/03 13:24:35;;;;;;;2.63;2.20;;;15.90;99.90;;;;;;5074472;28;20836;-82
2022/11/03 13:27:03;;;;;;;2.60;2.07;;;15.80;99.90;;;;;;5076317;28;20438;-81